createdAt,value
2018-06-25T00:00:06.137Z,0.00
2018-06-25T00:01:06.157Z,0.00
2018-06-25T00:02:06.188Z,0.00
2018-06-25T00:03:06.207Z,0.00
2018-06-25T00:04:06.229Z,0.00
2018-06-25T00:05:06.252Z,0.00
2018-06-25T00:06:06.272Z,0.00
2018-06-25T00:07:06.298Z,0.00
2018-06-25T00:08:06.326Z,0.00
2018-06-25T00:09:06.343Z,0.00
2018-06-25T00:10:06.366Z,0.00
2018-06-25T00:11:06.402Z,0.00
2018-06-25T00:12:06.412Z,0.00
2018-06-25T00:13:06.442Z,0.00
2018-06-25T00:14:06.457Z,0.00
2018-06-25T00:15:06.485Z,0.00
2018-06-25T00:16:06.503Z,0.00
2018-06-25T00:17:06.526Z,0.00
2018-06-25T00:18:06.552Z,0.00
2018-06-25T00:19:06.573Z,0.00
2018-06-25T00:20:06.602Z,0.00
2018-06-25T00:21:06.625Z,0.00
2018-06-25T00:22:06.642Z,0.00
2018-06-25T00:23:06.672Z,0.00
2018-06-25T00:24:06.692Z,0.00
2018-06-25T00:25:06.719Z,0.00
2018-06-25T00:26:06.740Z,0.00
2018-06-25T00:27:06.761Z,0.00
2018-06-25T00:28:06.782Z,0.00
2018-06-25T00:29:06.807Z,0.00
2018-06-25T00:30:06.831Z,0.00
2018-06-25T00:31:06.856Z,0.00
2018-06-25T00:32:06.879Z,0.00
2018-06-25T00:33:06.902Z,0.00
2018-06-25T00:34:06.924Z,0.00
2018-06-25T00:35:06.951Z,0.00
2018-06-25T00:36:06.977Z,0.00
2018-06-25T00:37:06.994Z,0.00
2018-06-25T00:38:07.017Z,0.00
2018-06-25T00:39:07.043Z,0.00
2018-06-25T00:40:07.066Z,0.00
2018-06-25T00:41:07.092Z,0.00
2018-06-25T00:42:07.111Z,0.00
2018-06-25T00:43:07.139Z,0.00
2018-06-25T00:44:07.157Z,0.00
2018-06-25T00:45:07.183Z,0.00
2018-06-25T00:46:07.202Z,0.00
2018-06-25T00:47:07.231Z,0.00
2018-06-25T00:48:07.249Z,0.00
2018-06-25T00:49:07.276Z,0.00
2018-06-25T00:50:07.304Z,0.00
2018-06-25T00:51:07.323Z,0.00
2018-06-25T00:52:07.343Z,0.00
2018-06-25T00:53:07.367Z,0.00
2018-06-25T00:54:07.398Z,0.00
2018-06-25T00:55:07.418Z,0.00
2018-06-25T00:56:07.438Z,0.00
2018-06-25T00:57:07.467Z,0.00
2018-06-25T00:58:07.493Z,0.00
2018-06-25T00:59:07.505Z,0.00
2018-06-25T01:00:07.531Z,0.00
2018-06-25T01:01:07.553Z,0.00
2018-06-25T01:02:07.580Z,0.00
2018-06-25T01:03:07.602Z,0.00
2018-06-25T01:04:07.621Z,0.00
2018-06-25T01:05:07.649Z,0.00
2018-06-25T01:06:07.723Z,0.00
2018-06-25T01:07:07.700Z,0.00
2018-06-25T01:08:07.714Z,0.00
2018-06-25T01:09:07.739Z,0.00
2018-06-25T01:10:07.766Z,0.00
2018-06-25T01:11:07.784Z,0.00
2018-06-25T01:12:07.813Z,0.00
2018-06-25T01:13:07.837Z,0.00
2018-06-25T01:14:07.854Z,0.00
2018-06-25T01:15:07.879Z,0.00
2018-06-25T01:16:07.900Z,0.00
2018-06-25T01:17:07.928Z,0.00
2018-06-25T01:18:07.952Z,0.00
2018-06-25T01:19:07.978Z,0.00
2018-06-25T01:20:07.993Z,0.00
2018-06-25T01:21:08.020Z,0.00
2018-06-25T01:22:08.044Z,0.00
2018-06-25T01:23:08.063Z,0.00
2018-06-25T01:24:08.090Z,0.00
2018-06-25T01:25:08.111Z,0.00
2018-06-25T01:26:08.134Z,0.00
2018-06-25T01:27:08.159Z,0.00
2018-06-25T01:28:08.178Z,0.00
2018-06-25T01:29:08.211Z,0.00
2018-06-25T01:30:08.228Z,0.00
2018-06-25T01:31:08.256Z,0.00
2018-06-25T01:32:08.282Z,0.00
2018-06-25T01:33:08.303Z,0.00
2018-06-25T01:34:08.335Z,0.00
2018-06-25T01:35:08.349Z,0.00
2018-06-25T01:36:08.369Z,0.00
2018-06-25T01:37:08.393Z,0.00
2018-06-25T01:38:08.421Z,0.00
2018-06-25T01:39:08.443Z,0.00
2018-06-25T01:40:08.464Z,0.00
2018-06-25T01:41:08.489Z,0.00
2018-06-25T01:42:08.512Z,0.00
2018-06-25T01:43:08.533Z,0.00
2018-06-25T01:44:08.559Z,0.00
2018-06-25T01:45:08.583Z,0.00
2018-06-25T01:46:08.607Z,0.00
2018-06-25T01:47:08.628Z,0.00
2018-06-25T01:48:08.650Z,0.00
2018-06-25T01:49:08.677Z,0.00
2018-06-25T01:50:08.698Z,0.00
2018-06-25T01:51:08.724Z,0.00
2018-06-25T01:52:08.747Z,0.00
2018-06-25T01:53:08.767Z,0.00
2018-06-25T01:54:08.799Z,0.00
2018-06-25T01:55:08.816Z,0.00
2018-06-25T01:56:08.843Z,0.00
2018-06-25T01:57:08.867Z,0.00
2018-06-25T01:58:08.887Z,0.00
2018-06-25T01:59:08.913Z,0.00
2018-06-25T02:00:08.932Z,0.00
2018-06-25T02:01:08.960Z,0.00
2018-06-25T02:02:08.978Z,0.00
2018-06-25T02:03:09.008Z,0.00
2018-06-25T02:04:09.027Z,4.00
2018-06-25T02:05:09.047Z,4.00
2018-06-25T02:06:09.072Z,4.00
2018-06-25T02:07:09.098Z,4.00
2018-06-25T02:08:09.121Z,0.00
2018-06-25T02:09:09.147Z,0.00
2018-06-25T02:10:09.171Z,4.00
2018-06-25T02:11:09.194Z,4.00
2018-06-25T02:12:09.221Z,4.00
2018-06-25T02:13:09.252Z,4.00
2018-06-25T02:14:09.261Z,4.00
2018-06-25T02:15:09.285Z,4.00
2018-06-25T02:16:09.308Z,8.00
2018-06-25T02:17:09.331Z,4.00
2018-06-25T02:18:09.359Z,4.00
2018-06-25T02:19:09.383Z,8.00
2018-06-25T02:20:09.412Z,8.00
2018-06-25T02:21:09.427Z,8.00
2018-06-25T02:22:09.451Z,12.00
2018-06-25T02:23:09.477Z,12.00
2018-06-25T02:24:09.496Z,12.00
2018-06-25T02:25:09.522Z,16.00
2018-06-25T02:26:09.546Z,12.00
2018-06-25T02:27:09.574Z,16.00
2018-06-25T02:28:09.591Z,16.00
2018-06-25T02:29:09.618Z,20.00
2018-06-25T02:30:09.646Z,24.00
2018-06-25T02:31:09.665Z,24.00
2018-06-25T02:32:09.688Z,28.00
2018-06-25T02:33:09.708Z,28.00
2018-06-25T02:34:09.735Z,36.00
2018-06-25T02:35:09.755Z,36.00
2018-06-25T02:36:09.785Z,40.00
2018-06-25T02:37:09.809Z,48.00
2018-06-25T02:38:09.825Z,56.00
2018-06-25T02:39:09.857Z,56.00
2018-06-25T02:40:09.879Z,60.00
2018-06-25T02:41:09.896Z,68.00
2018-06-25T02:42:09.925Z,72.00
2018-06-25T02:43:09.949Z,76.00
2018-06-25T02:44:09.969Z,84.00
2018-06-25T02:45:09.994Z,88.00
2018-06-25T02:46:10.016Z,92.00
2018-06-25T02:47:10.043Z,92.00
2018-06-25T02:48:10.060Z,100.00
2018-06-25T02:49:10.090Z,104.00
2018-06-25T02:50:10.110Z,108.00
2018-06-25T02:51:10.139Z,120.00
2018-06-25T02:52:10.159Z,132.00
2018-06-25T02:53:10.177Z,136.00
2018-06-25T02:54:10.209Z,144.00
2018-06-25T02:55:10.230Z,144.00
2018-06-25T02:56:10.253Z,156.00
2018-06-25T02:57:10.278Z,168.00
2018-06-25T02:58:10.301Z,176.00
2018-06-25T02:59:10.335Z,188.00
2018-06-25T03:00:10.346Z,200.00
2018-06-25T03:01:10.365Z,216.00
2018-06-25T03:02:10.392Z,236.00
2018-06-25T03:03:10.414Z,264.00
2018-06-25T03:04:10.443Z,292.00
2018-06-25T03:05:10.464Z,320.00
2018-06-25T03:06:10.484Z,340.00
2018-06-25T03:07:10.510Z,372.00
2018-06-25T03:08:10.531Z,384.00
2018-06-25T03:09:10.556Z,380.00
2018-06-25T03:10:10.583Z,392.00
2018-06-25T03:11:10.604Z,416.00
2018-06-25T03:12:10.628Z,444.00
2018-06-25T03:13:10.648Z,472.00
2018-06-25T03:14:10.674Z,496.00
2018-06-25T03:15:10.702Z,508.00
2018-06-25T03:16:10.724Z,536.00
2018-06-25T03:17:10.748Z,556.00
2018-06-25T03:18:10.773Z,568.00
2018-06-25T03:19:10.793Z,584.00
2018-06-25T03:20:10.823Z,596.00
2018-06-25T03:21:10.843Z,608.00
2018-06-25T03:22:10.863Z,636.00
2018-06-25T03:23:10.889Z,688.00
2018-06-25T03:24:10.908Z,732.00
2018-06-25T03:25:10.933Z,772.00
2018-06-25T03:26:10.956Z,816.00
2018-06-25T03:27:10.987Z,848.00
2018-06-25T03:28:11.007Z,884.00
2018-06-25T03:29:11.032Z,924.00
2018-06-25T03:30:11.057Z,996.00
2018-06-25T03:31:11.074Z,1068.00
2018-06-25T03:32:11.098Z,1152.00
2018-06-25T03:33:11.136Z,1240.00
2018-06-25T03:34:11.149Z,1336.00
2018-06-25T03:35:11.168Z,1364.00
2018-06-25T03:36:11.201Z,1380.00
2018-06-25T03:37:11.217Z,1384.00
2018-06-25T03:38:11.245Z,1384.00
2018-06-25T03:39:11.267Z,1420.00
2018-06-25T03:40:11.285Z,1500.00
2018-06-25T03:41:11.310Z,1556.00
2018-06-25T03:42:11.333Z,1600.00
2018-06-25T03:43:11.365Z,1600.00
2018-06-25T03:44:11.381Z,1660.00
2018-06-25T03:45:11.413Z,1756.00
2018-06-25T03:46:11.432Z,1820.00
2018-06-25T03:47:11.453Z,1860.00
2018-06-25T03:48:11.475Z,1836.00
2018-06-25T03:49:11.502Z,1860.00
2018-06-25T03:50:11.533Z,1940.00
2018-06-25T03:51:11.555Z,2000.00
2018-06-25T03:52:11.571Z,2024.00
2018-06-25T03:53:11.603Z,2056.00
2018-06-25T03:54:11.618Z,2088.00
2018-06-25T03:55:11.645Z,2060.00
2018-06-25T03:56:11.667Z,1996.00
2018-06-25T03:57:11.696Z,1936.00
2018-06-25T03:58:11.720Z,1820.00
2018-06-25T03:59:11.736Z,1864.00
2018-06-25T04:00:11.762Z,1948.00
2018-06-25T04:01:11.799Z,1996.00
2018-06-25T04:02:11.807Z,2032.00
2018-06-25T04:03:11.835Z,2072.00
2018-06-25T04:04:11.857Z,2072.00
2018-06-25T04:05:11.881Z,1996.00
2018-06-25T04:06:11.906Z,1768.00
2018-06-25T04:07:11.928Z,1640.00
2018-06-25T04:08:11.951Z,1588.00
2018-06-25T04:09:11.976Z,1536.00
2018-06-25T04:10:12.005Z,1508.00
2018-06-25T04:11:12.027Z,1580.00
2018-06-25T04:12:12.098Z,1544.00
2018-06-25T04:13:12.074Z,1448.00
2018-06-25T04:14:12.102Z,1452.00
2018-06-25T04:15:12.120Z,1508.00
2018-06-25T04:16:12.141Z,1588.00
2018-06-25T04:17:12.166Z,1600.00
2018-06-25T04:18:12.194Z,1716.00
2018-06-25T04:19:12.211Z,1888.00
2018-06-25T04:20:12.241Z,1988.00
2018-06-25T04:21:12.261Z,1988.00
2018-06-25T04:22:12.290Z,1892.00
2018-06-25T04:23:12.310Z,1936.00
2018-06-25T04:24:12.336Z,1980.00
2018-06-25T04:25:12.359Z,2008.00
2018-06-25T04:26:12.381Z,2092.00
2018-06-25T04:27:12.404Z,2044.00
2018-06-25T04:28:12.430Z,2108.00
2018-06-25T04:29:12.450Z,2164.00
2018-06-25T04:30:12.478Z,2176.00
2018-06-25T04:31:12.500Z,2228.00
2018-06-25T04:32:12.524Z,2136.00
2018-06-25T04:33:12.547Z,2148.00
2018-06-25T04:34:12.571Z,2228.00
2018-06-25T04:35:12.598Z,2232.00
2018-06-25T04:36:12.618Z,2140.00
2018-06-25T04:37:12.648Z,2052.00
2018-06-25T04:38:12.672Z,2128.00
2018-06-25T04:39:12.693Z,2252.00
2018-06-25T04:40:12.739Z,2228.00
2018-06-25T04:41:12.740Z,2228.00
2018-06-25T04:42:12.768Z,2224.00
2018-06-25T04:43:12.785Z,2260.00
2018-06-25T04:44:12.813Z,2248.00
2018-06-25T04:45:12.834Z,2220.00
2018-06-25T04:46:12.858Z,2252.00
2018-06-25T04:47:12.888Z,2248.00
2018-06-25T04:48:12.904Z,2260.00
2018-06-25T04:49:12.929Z,2312.00
2018-06-25T04:50:12.954Z,2320.00
2018-06-25T04:51:12.985Z,2224.00
2018-06-25T04:52:13.005Z,2264.00
2018-06-25T04:53:13.027Z,2236.00
2018-06-25T04:54:13.050Z,2208.00
2018-06-25T04:55:13.079Z,2128.00
2018-06-25T04:56:13.098Z,2108.00
2018-06-25T04:57:13.125Z,2264.00
2018-06-25T04:58:13.148Z,2284.00
2018-06-25T04:59:13.168Z,2200.00
2018-06-25T05:00:13.198Z,2200.00
2018-06-25T05:01:13.273Z,2252.00
2018-06-25T05:02:13.244Z,2388.00
2018-06-25T05:03:13.268Z,2392.00
2018-06-25T05:04:13.294Z,2392.00
2018-06-25T05:05:13.313Z,2368.00
2018-06-25T05:06:13.338Z,2392.00
2018-06-25T05:07:13.368Z,2408.00
2018-06-25T05:08:13.388Z,2532.00
2018-06-25T05:09:13.412Z,2512.00
2018-06-25T05:10:13.438Z,2692.00
2018-06-25T05:11:13.462Z,2848.00
2018-06-25T05:12:13.488Z,2816.00
2018-06-25T05:13:13.508Z,2668.00
2018-06-25T05:14:13.532Z,2536.00
2018-06-25T05:15:13.557Z,2420.00
2018-06-25T05:16:13.578Z,2412.00
2018-06-25T05:17:13.612Z,2500.00
2018-06-25T05:18:13.628Z,2792.00
2018-06-25T05:19:13.657Z,3040.00
2018-06-25T05:20:13.679Z,3276.00
2018-06-25T05:21:13.704Z,3108.00
2018-06-25T05:22:13.729Z,3128.00
2018-06-25T05:23:13.752Z,3188.00
2018-06-25T05:24:13.776Z,3400.00
2018-06-25T05:25:13.802Z,3384.00
2018-06-25T05:26:13.821Z,3348.00
2018-06-25T05:27:13.849Z,3548.00
2018-06-25T05:28:13.872Z,3688.00
2018-06-25T05:29:13.963Z,3592.00
2018-06-25T05:30:13.919Z,3292.00
2018-06-25T05:31:13.947Z,3304.00
2018-06-25T05:32:13.967Z,3504.00
2018-06-25T05:33:13.992Z,3420.00
2018-06-25T05:34:14.022Z,3288.00
2018-06-25T05:35:14.045Z,3240.00
2018-06-25T05:36:14.074Z,3140.00
2018-06-25T05:37:14.097Z,3132.00
2018-06-25T05:38:14.115Z,3232.00
2018-06-25T05:39:14.142Z,3324.00
2018-06-25T05:40:14.166Z,3900.00
2018-06-25T05:41:14.189Z,4224.00
2018-06-25T05:42:14.217Z,4408.00
2018-06-25T05:43:14.241Z,3964.00
2018-06-25T05:44:14.261Z,3848.00
2018-06-25T05:45:14.287Z,3728.00
2018-06-25T05:46:14.312Z,3532.00
2018-06-25T05:47:14.336Z,3336.00
2018-06-25T05:48:14.365Z,3360.00
2018-06-25T05:49:14.384Z,3504.00
2018-06-25T05:50:14.412Z,3656.00
2018-06-25T05:51:14.436Z,3792.00
2018-06-25T05:52:14.459Z,4008.00
2018-06-25T05:53:14.483Z,4200.00
2018-06-25T05:54:14.510Z,4020.00
2018-06-25T05:55:14.534Z,4048.00
2018-06-25T05:56:14.555Z,4240.00
2018-06-25T05:57:14.580Z,4252.00
2018-06-25T05:58:14.605Z,4160.00
2018-06-25T05:59:14.634Z,3812.00
2018-06-25T06:00:14.655Z,3672.00
2018-06-25T06:01:14.682Z,3764.00
2018-06-25T06:02:14.704Z,3624.00
2018-06-25T06:03:14.730Z,3568.00
2018-06-25T06:04:14.754Z,3788.00
2018-06-25T06:05:14.775Z,4212.00
2018-06-25T06:06:14.808Z,4412.00
2018-06-25T06:07:14.825Z,4228.00
2018-06-25T06:08:14.858Z,4312.00
2018-06-25T06:09:14.879Z,4680.00
2018-06-25T06:10:14.903Z,5012.00
2018-06-25T06:11:14.925Z,5376.00
2018-06-25T06:12:14.951Z,5224.00
2018-06-25T06:13:14.979Z,5176.00
2018-06-25T06:14:15.004Z,5444.00
2018-06-25T06:15:15.029Z,5528.00
2018-06-25T06:16:15.053Z,5744.00
2018-06-25T06:17:15.188Z,6184.00
2018-06-25T06:18:15.101Z,6472.00
2018-06-25T06:19:15.122Z,6736.00
2018-06-25T06:20:15.145Z,6996.00
2018-06-25T06:21:15.192Z,7268.00
2018-06-25T06:22:15.194Z,7216.00
2018-06-25T06:23:15.220Z,7348.00
2018-06-25T06:24:15.248Z,7716.00
2018-06-25T06:25:15.268Z,7776.00
2018-06-25T06:26:15.301Z,7716.00
2018-06-25T06:27:15.329Z,8108.00
2018-06-25T06:28:15.348Z,8664.00
2018-06-25T06:29:15.372Z,8612.00
2018-06-25T06:30:15.404Z,8504.00
2018-06-25T06:31:15.418Z,8308.00
2018-06-25T06:32:15.448Z,8660.00
2018-06-25T06:33:15.469Z,9024.00
2018-06-25T06:34:15.494Z,9152.00
2018-06-25T06:35:15.518Z,9684.00
2018-06-25T06:36:15.548Z,10144.00
2018-06-25T06:37:15.572Z,10632.00
2018-06-25T06:38:15.594Z,11368.00
2018-06-25T06:39:15.618Z,12348.00
2018-06-25T06:40:15.643Z,12296.00
2018-06-25T06:41:15.673Z,13536.00
2018-06-25T06:42:15.694Z,13252.00
2018-06-25T06:43:15.721Z,15136.00
2018-06-25T06:44:15.746Z,15100.00
2018-06-25T06:45:15.771Z,17216.00
2018-06-25T06:46:15.793Z,16272.00
2018-06-25T06:47:15.823Z,15412.00
2018-06-25T06:48:15.845Z,13828.00
2018-06-25T06:49:15.874Z,13324.00
2018-06-25T06:50:15.898Z,13696.00
2018-06-25T06:51:15.928Z,15060.00
2018-06-25T06:52:15.952Z,15356.00
2018-06-25T06:53:15.973Z,15028.00
2018-06-25T06:54:16.009Z,13932.00
2018-06-25T06:55:16.027Z,12348.00
2018-06-25T06:56:16.055Z,10000.00
2018-06-25T06:57:16.073Z,8564.00
2018-06-25T06:58:16.110Z,8364.00
2018-06-25T06:59:16.128Z,9336.00
2018-06-25T07:00:16.153Z,10540.00
2018-06-25T07:01:16.183Z,10452.00
2018-06-25T07:02:16.202Z,9780.00
2018-06-25T07:03:16.237Z,9792.00
2018-06-25T07:04:16.253Z,9892.00
2018-06-25T07:05:16.282Z,9748.00
2018-06-25T07:06:16.310Z,9008.00
2018-06-25T07:07:16.330Z,9120.00
2018-06-25T07:08:16.362Z,9172.00
2018-06-25T07:09:16.387Z,9008.00
2018-06-25T07:10:16.438Z,8996.00
2018-06-25T07:11:16.435Z,8852.00
2018-06-25T07:12:16.471Z,8424.00
2018-06-25T07:13:16.490Z,8212.00
2018-06-25T07:14:16.510Z,8576.00
2018-06-25T07:15:16.545Z,9300.00
2018-06-25T07:16:16.570Z,9952.00
2018-06-25T07:17:16.590Z,9656.00
2018-06-25T07:18:16.618Z,8740.00
2018-06-25T07:19:16.639Z,7520.00
2018-06-25T07:20:16.668Z,7280.00
2018-06-25T07:21:16.696Z,7628.00
2018-06-25T07:22:16.717Z,6812.00
2018-06-25T07:23:16.742Z,6392.00
2018-06-25T07:24:16.767Z,6628.00
2018-06-25T07:25:16.795Z,6692.00
2018-06-25T07:26:16.818Z,6472.00
2018-06-25T07:27:16.851Z,6316.00
2018-06-25T07:28:16.879Z,6164.00
2018-06-25T07:29:17.025Z,6296.00
2018-06-25T07:30:16.924Z,6180.00
2018-06-25T07:31:16.957Z,5976.00
2018-06-25T07:32:16.974Z,6608.00
2018-06-25T07:33:17.005Z,6780.00
2018-06-25T07:34:17.024Z,6580.00
2018-06-25T07:35:17.059Z,6404.00
2018-06-25T07:36:17.075Z,6584.00
2018-06-25T07:37:17.110Z,6292.00
2018-06-25T07:38:17.125Z,6008.00
2018-06-25T07:39:17.152Z,6024.00
2018-06-25T07:40:17.176Z,5980.00
2018-06-25T07:41:17.196Z,5460.00
2018-06-25T07:42:17.229Z,4920.00
2018-06-25T07:43:17.249Z,4744.00
2018-06-25T07:44:17.279Z,4728.00
2018-06-25T07:45:17.304Z,4804.00
2018-06-25T07:46:17.326Z,4944.00
2018-06-25T07:47:17.560Z,4964.00
2018-06-25T07:48:17.372Z,4828.00
2018-06-25T07:49:17.402Z,4800.00
2018-06-25T07:50:17.433Z,5040.00
2018-06-25T07:51:17.450Z,5296.00
2018-06-25T07:52:17.473Z,5380.00
2018-06-25T07:53:17.521Z,5464.00
2018-06-25T07:54:17.525Z,5692.00
2018-06-25T07:55:17.556Z,5520.00
2018-06-25T07:56:17.578Z,5460.00
2018-06-25T07:57:17.604Z,5428.00
2018-06-25T07:58:17.625Z,5484.00
2018-06-25T07:59:17.650Z,5792.00
2018-06-25T08:00:17.677Z,5988.00
2018-06-25T08:01:17.700Z,5904.00
2018-06-25T08:02:17.722Z,5764.00
2018-06-25T08:03:17.750Z,5892.00
2018-06-25T08:04:17.784Z,6252.00
2018-06-25T08:05:17.799Z,6260.00
2018-06-25T08:06:17.820Z,6048.00
2018-06-25T08:07:17.856Z,6008.00
2018-06-25T08:08:17.882Z,6296.00
2018-06-25T08:09:17.897Z,6776.00
2018-06-25T08:10:17.964Z,6644.00
2018-06-25T08:11:17.952Z,6176.00
2018-06-25T08:12:17.978Z,6144.00
2018-06-25T08:13:17.998Z,6244.00
2018-06-25T08:14:18.033Z,5840.00
2018-06-25T08:15:18.043Z,5604.00
2018-06-25T08:16:18.157Z,5644.00
2018-06-25T08:17:18.096Z,5504.00
2018-06-25T08:18:18.123Z,5588.00
2018-06-25T08:19:18.152Z,5756.00
2018-06-25T08:20:18.182Z,6040.00
2018-06-25T08:21:18.198Z,6284.00
2018-06-25T08:22:18.222Z,6704.00
2018-06-25T08:23:18.251Z,6868.00
2018-06-25T08:24:18.271Z,7308.00
2018-06-25T08:25:18.296Z,7744.00
2018-06-25T08:26:18.316Z,7920.00
2018-06-25T08:27:18.343Z,8084.00
2018-06-25T08:28:18.363Z,8320.00
2018-06-25T08:29:18.397Z,8992.00
2018-06-25T08:30:18.418Z,8688.00
2018-06-25T08:31:18.448Z,7852.00
2018-06-25T08:32:18.468Z,8128.00
2018-06-25T08:33:18.490Z,8792.00
2018-06-25T08:34:18.622Z,8260.00
2018-06-25T08:35:18.563Z,7728.00
2018-06-25T08:36:18.568Z,7904.00
2018-06-25T08:37:18.592Z,8508.00
2018-06-25T08:38:18.616Z,8408.00
2018-06-25T08:39:18.639Z,8564.00
2018-06-25T08:40:18.720Z,9444.00
2018-06-25T08:41:18.688Z,9448.00
2018-06-25T08:42:18.718Z,8464.00
2018-06-25T08:43:18.750Z,8640.00
2018-06-25T08:44:18.765Z,8584.00
2018-06-25T08:45:18.790Z,7476.00
2018-06-25T08:46:18.816Z,7588.00
2018-06-25T08:47:18.846Z,8012.00
2018-06-25T08:48:18.875Z,7756.00
2018-06-25T08:49:18.886Z,7460.00
2018-06-25T08:50:18.912Z,7388.00
2018-06-25T08:51:18.947Z,7348.00
2018-06-25T08:52:18.963Z,7808.00
2018-06-25T08:53:18.993Z,8108.00
2018-06-25T08:54:19.027Z,7904.00
2018-06-25T08:55:19.040Z,7972.00
2018-06-25T08:56:19.075Z,7928.00
2018-06-25T08:57:19.091Z,7860.00
2018-06-25T08:58:19.116Z,7480.00
2018-06-25T08:59:19.143Z,7092.00
2018-06-25T09:00:19.161Z,7132.00
2018-06-25T09:01:19.187Z,7832.00
2018-06-25T09:02:19.217Z,9060.00
2018-06-25T09:03:19.373Z,10744.00
2018-06-25T09:04:19.298Z,12456.00
2018-06-25T09:05:19.428Z,14744.00
2018-06-25T09:06:19.316Z,17080.00
2018-06-25T09:07:19.339Z,16196.00
2018-06-25T09:08:19.363Z,13760.00
2018-06-25T09:09:19.385Z,11592.00
2018-06-25T09:10:19.409Z,9388.00
2018-06-25T09:11:19.436Z,8852.00
2018-06-25T09:12:19.461Z,8812.00
2018-06-25T09:13:19.488Z,9068.00
2018-06-25T09:14:19.531Z,9248.00
2018-06-25T09:15:19.613Z,9736.00
2018-06-25T09:16:19.564Z,9360.00
2018-06-25T09:17:19.595Z,8412.00
2018-06-25T09:18:19.616Z,7984.00
2018-06-25T09:19:19.637Z,7892.00
2018-06-25T09:20:19.665Z,7848.00
2018-06-25T09:21:19.690Z,7764.00
2018-06-25T09:22:19.710Z,7812.00
2018-06-25T09:23:19.746Z,7944.00
2018-06-25T09:24:19.760Z,7748.00
2018-06-25T09:25:19.792Z,7468.00
2018-06-25T09:26:19.815Z,7400.00
2018-06-25T09:27:19.839Z,7200.00
2018-06-25T09:28:19.863Z,7100.00
2018-06-25T09:29:19.889Z,7144.00
2018-06-25T09:30:19.920Z,7740.00
2018-06-25T09:31:19.939Z,8356.00
2018-06-25T09:32:19.976Z,7888.00
2018-06-25T09:33:19.992Z,7392.00
2018-06-25T09:34:20.016Z,7508.00
2018-06-25T09:35:20.110Z,7576.00
2018-06-25T09:36:20.065Z,8220.00
2018-06-25T09:37:20.094Z,8900.00
2018-06-25T09:38:20.119Z,8800.00
2018-06-25T09:39:20.141Z,8444.00
2018-06-25T09:40:20.169Z,7904.00
2018-06-25T09:41:20.354Z,8052.00
2018-06-25T09:42:20.218Z,8188.00
2018-06-25T09:43:20.245Z,8172.00
2018-06-25T09:44:20.269Z,9028.00
2018-06-25T09:45:20.298Z,9624.00
2018-06-25T09:46:20.319Z,9716.00
2018-06-25T09:47:20.356Z,9348.00
2018-06-25T09:48:20.384Z,9000.00
2018-06-25T09:49:20.396Z,9080.00
2018-06-25T09:50:20.428Z,9400.00
2018-06-25T09:51:20.449Z,10284.00
2018-06-25T09:52:20.474Z,11292.00
2018-06-25T09:53:20.500Z,11600.00
2018-06-25T09:54:20.521Z,12880.00
2018-06-25T09:55:20.544Z,12484.00
2018-06-25T09:56:20.575Z,12152.00
2018-06-25T09:57:20.597Z,11492.00
2018-06-25T09:58:20.620Z,10584.00
2018-06-25T09:59:20.649Z,9800.00
2018-06-25T10:00:20.676Z,9084.00
2018-06-25T10:01:20.698Z,8928.00
2018-06-25T10:02:20.722Z,8672.00
2018-06-25T10:03:20.748Z,8780.00
2018-06-25T10:04:20.777Z,8976.00
2018-06-25T10:05:20.801Z,9048.00
2018-06-25T10:06:20.822Z,9124.00
2018-06-25T10:07:20.852Z,8712.00
2018-06-25T10:08:20.881Z,8272.00
2018-06-25T10:09:20.899Z,9452.00
2018-06-25T10:10:20.922Z,9748.00
2018-06-25T10:11:20.949Z,7896.00
2018-06-25T10:12:20.984Z,6708.00
2018-06-25T10:13:20.997Z,6408.00
2018-06-25T10:14:21.022Z,6304.00
2018-06-25T10:15:21.061Z,6468.00
2018-06-25T10:16:21.075Z,7040.00
2018-06-25T10:17:21.111Z,7688.00
2018-06-25T10:18:21.127Z,7908.00
2018-06-25T10:19:21.146Z,7904.00
2018-06-25T10:20:21.177Z,8424.00
2018-06-25T10:21:21.273Z,8480.00
2018-06-25T10:22:21.230Z,9112.00
2018-06-25T10:23:21.247Z,9508.00
2018-06-25T10:24:21.281Z,9928.00
2018-06-25T10:25:21.307Z,10596.00
2018-06-25T10:26:21.335Z,10732.00
2018-06-25T10:27:21.353Z,9976.00
2018-06-25T10:28:21.381Z,9900.00
2018-06-25T10:29:21.401Z,10216.00
2018-06-25T10:30:21.430Z,10108.00
2018-06-25T10:31:21.459Z,9688.00
2018-06-25T10:32:21.485Z,9648.00
2018-06-25T10:33:21.508Z,9888.00
2018-06-25T10:34:21.530Z,10092.00
2018-06-25T10:35:21.570Z,10000.00
2018-06-25T10:36:21.580Z,9592.00
2018-06-25T10:37:21.604Z,9612.00
2018-06-25T10:38:21.631Z,9988.00
2018-06-25T10:39:21.657Z,10244.00
2018-06-25T10:40:21.688Z,10856.00
2018-06-25T10:41:21.701Z,11672.00
2018-06-25T10:42:21.799Z,11992.00
2018-06-25T10:43:21.759Z,12572.00
2018-06-25T10:44:21.780Z,12856.00
2018-06-25T10:45:21.808Z,12664.00
2018-06-25T10:46:21.830Z,13408.00
2018-06-25T10:47:21.861Z,12500.00
2018-06-25T10:48:21.880Z,11408.00
2018-06-25T10:49:21.905Z,10960.00
2018-06-25T10:50:21.935Z,11680.00
2018-06-25T10:51:21.960Z,11856.00
2018-06-25T10:52:21.984Z,11932.00
2018-06-25T10:53:22.008Z,12416.00
2018-06-25T10:54:22.030Z,12516.00
2018-06-25T10:55:22.059Z,13228.00
2018-06-25T10:56:22.086Z,13740.00
2018-06-25T10:57:22.110Z,13896.00
2018-06-25T10:58:22.138Z,14856.00
2018-06-25T10:59:22.189Z,15468.00
2018-06-25T11:00:22.433Z,16376.00
2018-06-25T11:01:22.211Z,16180.00
2018-06-25T11:02:22.235Z,15656.00
2018-06-25T11:03:22.264Z,15404.00
2018-06-25T11:04:22.289Z,16836.00
2018-06-25T11:05:22.312Z,18496.00
2018-06-25T11:06:22.340Z,19200.00
2018-06-25T11:07:22.398Z,21056.00
2018-06-25T11:08:22.393Z,22272.00
2018-06-25T11:09:22.419Z,23392.00
2018-06-25T11:10:22.452Z,23136.00
2018-06-25T11:11:22.469Z,21184.00
2018-06-25T11:12:22.498Z,21120.00
2018-06-25T11:13:22.525Z,20896.00
2018-06-25T11:14:22.547Z,19552.00
2018-06-25T11:15:22.577Z,19840.00
2018-06-25T11:16:22.603Z,20032.00
2018-06-25T11:17:22.630Z,18784.00
2018-06-25T11:18:22.660Z,17984.00
2018-06-25T11:19:22.680Z,18368.00
2018-06-25T11:20:22.709Z,18912.00
2018-06-25T11:21:22.738Z,21056.00
2018-06-25T11:22:22.763Z,21952.00
2018-06-25T11:23:22.787Z,21664.00
2018-06-25T11:24:22.815Z,20416.00
2018-06-25T11:25:22.845Z,19616.00
2018-06-25T11:26:22.868Z,20384.00
2018-06-25T11:27:22.992Z,22048.00
2018-06-25T11:28:22.924Z,21920.00
2018-06-25T11:29:22.956Z,22208.00
2018-06-25T11:30:22.977Z,20992.00
2018-06-25T11:31:23.001Z,18080.00
2018-06-25T11:32:23.030Z,17032.00
2018-06-25T11:33:23.055Z,16472.00
2018-06-25T11:34:23.086Z,16980.00
2018-06-25T11:35:23.115Z,16988.00
2018-06-25T11:36:23.132Z,17984.00
2018-06-25T11:37:23.169Z,19616.00
2018-06-25T11:38:23.191Z,21024.00
2018-06-25T11:39:23.213Z,20768.00
2018-06-25T11:40:23.241Z,16828.00
2018-06-25T11:41:23.267Z,14752.00
2018-06-25T11:42:23.296Z,15016.00
2018-06-25T11:43:23.350Z,15920.00
2018-06-25T11:44:23.356Z,16228.00
2018-06-25T11:45:23.376Z,16672.00
2018-06-25T11:46:23.407Z,17600.00
2018-06-25T11:47:23.435Z,18432.00
2018-06-25T11:48:23.459Z,19936.00
2018-06-25T11:49:23.481Z,19584.00
2018-06-25T11:50:23.508Z,22112.00
2018-06-25T11:51:23.536Z,23936.00
2018-06-25T11:52:23.563Z,26048.00
2018-06-25T11:53:23.593Z,26208.00
2018-06-25T11:54:23.615Z,24160.00
2018-06-25T11:55:23.650Z,25568.00
2018-06-25T11:56:23.674Z,29984.00
2018-06-25T11:57:23.699Z,26944.00
2018-06-25T11:58:23.728Z,22112.00
2018-06-25T11:59:23.758Z,18784.00
2018-06-25T12:00:23.781Z,16400.00
2018-06-25T12:01:23.809Z,16600.00
2018-06-25T12:02:23.844Z,18432.00
2018-06-25T12:03:23.912Z,18976.00
2018-06-25T12:04:23.897Z,18336.00
2018-06-25T12:05:23.924Z,20480.00
2018-06-25T12:06:23.947Z,27136.00
2018-06-25T12:07:23.975Z,22944.00
2018-06-25T12:08:23.998Z,23776.00
2018-06-25T12:09:24.033Z,37664.00
2018-06-25T12:10:24.055Z,24384.00
2018-06-25T12:11:24.080Z,18144.00
2018-06-25T12:12:24.124Z,20064.00
2018-06-25T12:13:24.133Z,16832.00
2018-06-25T12:14:24.160Z,15360.00
2018-06-25T12:15:24.193Z,15132.00
2018-06-25T12:16:24.220Z,14628.00
2018-06-25T12:17:24.271Z,15244.00